createdAt,value
2022-07-29T00:01:45.674Z,50.67
2022-07-29T00:04:12.682Z,50.69
2022-07-29T00:06:40.095Z,50.59
2022-07-29T00:09:07.349Z,51.32
2022-07-29T00:11:34.028Z,52.90
2022-07-29T00:14:00.598Z,51.94
2022-07-29T00:16:27.155Z,51.43
2022-07-29T00:18:53.733Z,51.72
2022-07-29T00:21:20.372Z,51.33
2022-07-29T00:23:46.845Z,51.47
2022-07-29T00:26:13.322Z,51.33
2022-07-29T00:28:39.905Z,51.06
2022-07-29T00:31:06.478Z,52.00
2022-07-29T00:33:33.002Z,53.00
2022-07-29T00:35:59.475Z,53.55
2022-07-29T00:38:25.988Z,52.77
2022-07-29T00:40:52.464Z,53.36
2022-07-29T00:43:19.039Z,53.16
2022-07-29T00:45:45.909Z,54.54
2022-07-29T00:48:12.405Z,54.57
2022-07-29T00:50:39.508Z,53.70
2022-07-29T00:53:09.287Z,54.09
2022-07-29T00:55:36.438Z,53.21
2022-07-29T00:58:03.165Z,52.58
2022-07-29T01:00:30.986Z,52.88
2022-07-29T01:02:57.643Z,52.30
2022-07-29T01:05:25.733Z,52.57
2022-07-29T01:08:14.674Z,52.50
2022-07-29T01:10:42.357Z,52.11
2022-07-29T01:13:10.239Z,52.19
2022-07-29T01:16:04.067Z,53.33
2022-07-29T01:18:37.290Z,52.77
2022-07-29T01:21:45.801Z,53.94
2022-07-29T01:24:30.322Z,53.47
2022-07-29T01:27:19.994Z,55.09
2022-07-29T01:29:52.688Z,54.17
2022-07-29T01:32:28.658Z,53.36
2022-07-29T01:35:15.946Z,53.30
2022-07-29T01:37:48.129Z,53.05
2022-07-29T01:40:26.908Z,54.40
2022-07-29T01:42:56.821Z,52.91
2022-07-29T01:45:37.883Z,53.29
2022-07-29T01:48:12.975Z,53.62
2022-07-29T01:51:05.427Z,53.94
2022-07-29T01:53:43.780Z,53.78
2022-07-29T01:56:12.893Z,54.13
2022-07-29T01:58:42.484Z,54.54
2022-07-29T02:01:11.292Z,54.90
2022-07-29T02:03:39.250Z,54.55
2022-07-29T02:06:08.521Z,54.77
2022-07-29T02:08:36.191Z,53.11
2022-07-29T02:11:05.230Z,54.16
2022-07-29T02:13:33.774Z,53.51
2022-07-29T02:16:02.814Z,54.26
2022-07-29T02:18:31.693Z,53.80
2022-07-29T02:21:00.414Z,53.81
2022-07-29T02:23:27.461Z,53.37
2022-07-29T02:25:56.972Z,53.74
2022-07-29T02:28:27.656Z,53.45
2022-07-29T02:30:58.955Z,53.75
2022-07-29T02:33:27.458Z,53.37
2022-07-29T02:35:55.273Z,54.01
2022-07-29T02:38:41.662Z,52.65
2022-07-29T02:41:20.941Z,53.96
2022-07-29T02:43:56.743Z,54.02
2022-07-29T02:46:31.594Z,53.74
2022-07-29T02:49:13.549Z,54.56
2022-07-29T02:51:52.011Z,54.02
2022-07-29T02:54:30.593Z,54.42
2022-07-29T02:57:01.698Z,55.19
2022-07-29T02:59:31.672Z,55.64
2022-07-29T03:01:59.992Z,55.39
2022-07-29T03:04:30.189Z,56.39
2022-07-29T03:07:00.478Z,56.66
2022-07-29T03:09:27.542Z,58.38
2022-07-29T03:11:55.423Z,58.88
2022-07-29T03:14:23.863Z,62.45
2022-07-29T03:16:51.964Z,62.14
2022-07-29T03:19:19.427Z,65.97
2022-07-29T03:21:46.013Z,68.19
2022-07-29T03:24:25.944Z,65.90
2022-07-29T03:26:52.677Z,68.25
2022-07-29T03:29:19.195Z,67.39
2022-07-29T03:31:46.655Z,66.26
2022-07-29T03:34:15.194Z,65.92
2022-07-29T03:36:41.936Z,67.67
2022-07-29T03:39:10.226Z,66.53
2022-07-29T03:41:39.406Z,68.06
2022-07-29T03:44:08.432Z,66.42
2022-07-29T03:46:36.695Z,69.29
2022-07-29T03:49:05.661Z,71.07
2022-07-29T03:51:33.681Z,68.82
2022-07-29T03:54:05.038Z,67.56
2022-07-29T03:56:40.819Z,68.30
2022-07-29T03:59:08.133Z,66.20
2022-07-29T04:01:35.808Z,66.29
2022-07-29T04:04:03.426Z,70.98
2022-07-29T04:06:30.048Z,70.04
2022-07-29T04:08:56.518Z,70.26
2022-07-29T04:11:23.172Z,69.56
2022-07-29T04:13:49.661Z,74.54
2022-07-29T04:16:16.212Z,71.05
2022-07-29T04:18:42.851Z,72.12
2022-07-29T04:21:09.391Z,70.68
2022-07-29T04:23:35.868Z,71.04
2022-07-29T04:26:14.489Z,71.30
2022-07-29T04:28:41.431Z,70.13
2022-07-29T04:31:08.029Z,72.57
2022-07-29T04:33:34.580Z,72.60
2022-07-29T04:36:01.153Z,70.98
2022-07-29T04:38:27.608Z,73.95
2022-07-29T04:40:54.278Z,72.19
2022-07-29T04:43:23.170Z,71.64
2022-07-29T04:45:50.265Z,69.06
2022-07-29T04:48:17.370Z,71.76
2022-07-29T04:50:45.181Z,69.76
2022-07-29T04:53:12.015Z,70.97
2022-07-29T04:55:39.042Z,69.46
2022-07-29T04:58:05.862Z,71.92
2022-07-29T05:00:33.476Z,72.89
2022-07-29T05:03:00.341Z,74.20
2022-07-29T05:05:26.974Z,74.00
2022-07-29T05:07:53.708Z,72.17
2022-07-29T05:10:20.237Z,71.20
2022-07-29T05:12:46.782Z,70.83
2022-07-29T05:15:13.274Z,72.98
2022-07-29T05:17:39.845Z,74.50
2022-07-29T05:20:07.432Z,72.27
2022-07-29T05:22:34.044Z,70.69
2022-07-29T05:25:04.308Z,71.03
2022-07-29T05:27:33.542Z,70.10
2022-07-29T05:30:00.109Z,69.91
2022-07-29T05:32:26.577Z,69.73
2022-07-29T05:34:53.084Z,71.28
2022-07-29T05:37:21.072Z,70.63
2022-07-29T05:39:50.504Z,72.39
2022-07-29T05:42:23.076Z,70.89
2022-07-29T05:44:49.555Z,70.90
2022-07-29T05:47:16.064Z,69.19
2022-07-29T05:49:42.560Z,68.21
2022-07-29T05:52:09.879Z,69.28
2022-07-29T05:54:36.761Z,69.26
2022-07-29T05:57:04.091Z,68.28
2022-07-29T05:59:30.801Z,68.34
2022-07-29T06:01:58.275Z,67.18
2022-07-29T06:04:25.111Z,66.65
2022-07-29T06:06:51.650Z,68.72
2022-07-29T06:09:18.141Z,70.18
2022-07-29T06:11:44.623Z,69.79
2022-07-29T06:14:11.196Z,68.22
2022-07-29T06:16:38.112Z,67.69
2022-07-29T06:19:05.345Z,68.00
2022-07-29T06:21:31.929Z,67.62
2022-07-29T06:23:58.477Z,68.86
2022-07-29T06:26:30.827Z,69.94
2022-07-29T06:28:58.120Z,70.18
2022-07-29T06:31:24.811Z,69.27
2022-07-29T06:33:51.424Z,68.06
2022-07-29T06:36:21.280Z,70.74
2022-07-29T06:38:51.445Z,68.57
2022-07-29T06:41:19.234Z,67.96
2022-07-29T06:43:52.509Z,71.16
2022-07-29T06:46:23.225Z,69.49
2022-07-29T06:48:50.776Z,70.23
2022-07-29T06:51:22.165Z,71.03
2022-07-29T06:54:00.120Z,75.36
2022-07-29T06:56:38.263Z,74.45
2022-07-29T06:59:06.534Z,78.69
2022-07-29T07:01:33.477Z,74.48
2022-07-29T07:04:00.088Z,75.76
2022-07-29T07:06:26.833Z,79.05
2022-07-29T07:08:53.337Z,81.20
2022-07-29T07:11:20.033Z,80.61
2022-07-29T07:13:46.573Z,80.66
2022-07-29T07:16:13.183Z,80.42
2022-07-29T07:18:39.645Z,80.62
2022-07-29T07:21:06.687Z,82.15
2022-07-29T07:23:33.229Z,81.25
2022-07-29T07:25:59.675Z,78.46
2022-07-29T07:28:26.252Z,79.21
2022-07-29T07:30:53.024Z,78.72
2022-07-29T07:33:19.889Z,80.10
2022-07-29T07:35:46.671Z,77.18
2022-07-29T07:38:13.688Z,77.45
2022-07-29T07:40:40.199Z,79.65
2022-07-29T07:43:06.933Z,80.37
2022-07-29T07:45:34.037Z,79.80
2022-07-29T07:48:00.861Z,81.98
2022-07-29T07:50:27.567Z,82.46
2022-07-29T07:52:59.491Z,81.24
2022-07-29T07:55:27.080Z,78.23
2022-07-29T07:57:54.496Z,81.54
2022-07-29T08:00:23.762Z,82.11
2022-07-29T08:02:51.688Z,83.34
2022-07-29T08:05:19.298Z,82.35
2022-07-29T08:07:47.520Z,81.53
2022-07-29T08:10:16.110Z,78.99
2022-07-29T08:12:44.454Z,77.89
2022-07-29T08:15:10.996Z,79.86
2022-07-29T08:17:37.513Z,77.20
2022-07-29T08:20:04.955Z,79.31
2022-07-29T08:22:31.469Z,78.96
2022-07-29T08:24:57.947Z,78.33
2022-07-29T08:27:42.825Z,78.29
2022-07-29T08:30:11.217Z,78.44
2022-07-29T08:32:53.307Z,78.47
2022-07-29T08:35:24.331Z,75.90
2022-07-29T08:37:51.523Z,75.27
2022-07-29T08:40:18.092Z,76.23
2022-07-29T08:42:44.616Z,75.16
2022-07-29T08:45:11.533Z,77.03
2022-07-29T08:47:40.780Z,74.47
2022-07-29T08:50:11.423Z,73.74
2022-07-29T08:52:40.239Z,72.02
2022-07-29T08:55:08.449Z,70.95
2022-07-29T08:57:35.973Z,70.26
2022-07-29T09:00:11.842Z,69.53
2022-07-29T09:02:48.773Z,69.40
2022-07-29T09:05:15.720Z,67.79
2022-07-29T09:07:44.265Z,62.60
2022-07-29T09:10:11.290Z,61.42
2022-07-29T09:12:38.433Z,60.07
2022-07-29T09:15:05.458Z,60.74
2022-07-29T09:17:44.823Z,59.01
2022-07-29T09:20:19.590Z,60.10
2022-07-29T09:22:50.527Z,61.38
2022-07-29T09:25:33.643Z,60.73
2022-07-29T09:28:14.978Z,61.18
2022-07-29T09:30:52.056Z,59.93
2022-07-29T09:33:19.575Z,61.18
2022-07-29T09:35:56.550Z,61.74
2022-07-29T09:38:23.730Z,59.13
2022-07-29T09:41:05.486Z,58.42
2022-07-29T09:43:33.433Z,59.21
2022-07-29T09:46:14.385Z,54.62
2022-07-29T09:48:41.001Z,58.90
2022-07-29T09:51:21.281Z,54.23
2022-07-29T09:53:51.266Z,55.17
2022-07-29T09:56:19.634Z,56.36
2022-07-29T09:58:46.207Z,55.76
2022-07-29T10:01:13.371Z,53.90
2022-07-29T10:03:53.385Z,52.56
2022-07-29T10:06:19.958Z,55.54
2022-07-29T10:08:47.645Z,56.01
2022-07-29T10:11:15.177Z,56.17
2022-07-29T10:13:42.939Z,54.75
2022-07-29T10:16:10.471Z,55.90
2022-07-29T10:18:39.464Z,56.42
2022-07-29T10:21:06.348Z,55.56
2022-07-29T10:23:46.402Z,56.16
2022-07-29T10:26:15.454Z,55.09
2022-07-29T10:28:42.090Z,55.53
2022-07-29T10:31:33.342Z,55.39
2022-07-29T10:34:14.540Z,53.92
2022-07-29T10:37:02.089Z,52.90
2022-07-29T10:39:49.919Z,53.85
2022-07-29T10:42:33.527Z,52.44
2022-07-29T10:45:01.901Z,54.25
2022-07-29T10:47:28.759Z,54.48
2022-07-29T10:50:04.247Z,54.28
2022-07-29T10:52:59.291Z,54.44
2022-07-29T10:55:47.765Z,55.20
2022-07-29T10:58:22.334Z,54.40
2022-07-29T11:00:51.278Z,52.58
2022-07-29T11:03:49.300Z,51.03
2022-07-29T11:06:17.234Z,52.92
2022-07-29T11:08:44.715Z,51.52
2022-07-29T11:11:29.725Z,49.36
2022-07-29T11:13:56.951Z,51.76
2022-07-29T11:16:25.044Z,49.28
2022-07-29T11:19:29.774Z,48.17
2022-07-29T11:21:58.763Z,50.70
2022-07-29T11:24:32.063Z,48.52
2022-07-29T11:27:13.801Z,47.36
2022-07-29T11:32:50.101Z,49.72
2022-07-29T11:35:37.953Z,48.70
2022-07-29T11:38:31.860Z,48.03
2022-07-29T11:41:23.721Z,48.10
2022-07-29T11:43:54.985Z,48.47
2022-07-29T11:46:47.695Z,49.16
2022-07-29T11:49:19.537Z,49.37
2022-07-29T11:51:56.164Z,47.21
2022-07-29T11:54:27.802Z,48.11
2022-07-29T11:56:54.857Z,47.62
2022-07-29T11:59:22.321Z,47.36
2022-07-29T12:02:06.843Z,47.29
2022-07-29T12:04:55.272Z,46.00
2022-07-29T12:07:03.188Z,47.16
2022-07-29T12:07:34.696Z,45.44
2022-07-29T12:10:03.194Z,46.34
2022-07-29T12:12:29.884Z,46.16
2022-07-29T12:14:56.433Z,45.37
2022-07-29T12:17:30.846Z,44.04
2022-07-29T12:20:00.527Z,45.69
2022-07-29T12:22:41.403Z,43.47
2022-07-29T12:25:32.695Z,43.80
2022-07-29T12:28:01.665Z,43.35
2022-07-29T12:30:49.568Z,43.52
2022-07-29T12:33:28.398Z,44.57
2022-07-29T12:36:12.843Z,43.56
2022-07-29T12:38:44.090Z,45.15
2022-07-29T12:41:11.429Z,44.50
2022-07-29T12:43:37.927Z,44.73
2022-07-29T12:46:17.408Z,43.90
2022-07-29T12:48:44.749Z,44.15
2022-07-29T12:51:15.145Z,43.23
2022-07-29T12:53:41.754Z,44.31
2022-07-29T12:56:40.639Z,42.51
2022-07-29T12:59:23.109Z,42.11
2022-07-29T13:01:52.257Z,42.62
2022-07-29T13:04:27.799Z,41.38
2022-07-29T13:07:09.185Z,42.59
2022-07-29T13:09:42.368Z,41.86
2022-07-29T13:12:11.027Z,40.45
2022-07-29T13:14:40.896Z,42.22
2022-07-29T13:17:32.599Z,42.78
2022-07-29T13:20:10.222Z,41.60
2022-07-29T13:22:36.922Z,41.51
2022-07-29T13:25:03.766Z,42.24
2022-07-29T13:27:35.219Z,42.21
2022-07-29T13:30:04.376Z,43.07
2022-07-29T13:32:31.731Z,41.75
2022-07-29T13:35:01.122Z,42.26
2022-07-29T13:37:30.668Z,42.71
2022-07-29T13:39:58.086Z,40.90
2022-07-29T13:42:25.845Z,41.35
2022-07-29T13:44:52.978Z,40.85
2022-07-29T13:47:20.825Z,41.16
2022-07-29T13:49:47.373Z,41.67
2022-07-29T13:52:14.041Z,41.68
2022-07-29T13:54:42.540Z,41.04
2022-07-29T13:57:11.589Z,40.73
2022-07-29T13:59:38.599Z,40.37
2022-07-29T14:02:05.944Z,40.16
2022-07-29T14:04:33.201Z,39.76
2022-07-29T14:06:59.886Z,39.79
2022-07-29T14:09:30.634Z,38.89
2022-07-29T14:12:07.938Z,38.94
2022-07-29T14:14:34.482Z,38.61
2022-07-29T14:17:01.022Z,38.41
2022-07-29T14:19:28.060Z,39.20
2022-07-29T14:21:54.613Z,39.05
2022-07-29T14:24:23.877Z,39.57
2022-07-29T14:26:50.515Z,38.31
2022-07-29T14:29:17.137Z,39.00
2022-07-29T14:31:44.761Z,37.63
2022-07-29T14:34:11.355Z,38.50
2022-07-29T14:36:37.874Z,36.99
2022-07-29T14:39:04.961Z,38.27
2022-07-29T14:41:31.607Z,37.53
2022-07-29T14:43:58.764Z,37.70
2022-07-29T14:46:25.286Z,36.17
2022-07-29T14:48:51.847Z,36.88
2022-07-29T14:51:18.437Z,36.25
2022-07-29T14:53:44.962Z,38.09
2022-07-29T14:56:35.626Z,36.46
2022-07-29T14:58:58.328Z,36.08
2022-07-29T15:01:25.653Z,35.87
2022-07-29T15:03:56.807Z,35.28
2022-07-29T15:06:25.952Z,36.20
2022-07-29T15:08:52.473Z,36.98
2022-07-29T15:11:18.997Z,35.75
2022-07-29T15:13:45.509Z,35.85
2022-07-29T15:16:12.088Z,35.95
2022-07-29T15:18:39.326Z,35.67
2022-07-29T15:21:07.875Z,35.56
2022-07-29T15:23:38.129Z,35.83
2022-07-29T15:26:05.175Z,35.67
2022-07-29T15:28:31.769Z,37.27
2022-07-29T15:30:58.337Z,36.50
2022-07-29T15:33:24.879Z,37.05
2022-07-29T15:35:51.367Z,37.82
2022-07-29T15:38:18.016Z,37.66
2022-07-29T15:40:45.344Z,38.24
2022-07-29T15:43:12.574Z,38.90
2022-07-29T15:45:41.583Z,38.94
2022-07-29T15:48:14.618Z,39.38
2022-07-29T15:50:41.500Z,40.23
2022-07-29T15:53:08.004Z,40.78
2022-07-29T15:55:34.490Z,40.92
2022-07-29T15:58:01.032Z,41.11
2022-07-29T16:00:28.039Z,41.69
2022-07-29T16:02:54.536Z,41.42
2022-07-29T16:05:21.094Z,40.87
2022-07-29T16:07:47.633Z,41.29
2022-07-29T16:10:14.160Z,41.59
2022-07-29T16:12:40.718Z,41.59
2022-07-29T16:15:10.529Z,41.51
2022-07-29T16:17:38.333Z,40.97
2022-07-29T16:20:06.555Z,40.64
2022-07-29T16:22:33.068Z,41.08
2022-07-29T16:24:59.713Z,41.01
2022-07-29T16:27:35.507Z,40.94
2022-07-29T16:30:06.417Z,40.75
2022-07-29T16:32:32.923Z,40.93
2022-07-29T16:35:02.042Z,40.96
2022-07-29T16:37:33.543Z,41.51
2022-07-29T16:40:00.191Z,41.39
2022-07-29T16:42:45.539Z,41.56
2022-07-29T16:45:12.969Z,41.64
2022-07-29T16:47:39.618Z,41.96
2022-07-29T16:50:06.639Z,41.33
2022-07-29T16:52:33.625Z,41.87
2022-07-29T16:55:00.154Z,41.78
2022-07-29T16:57:26.656Z,42.38
2022-07-29T16:59:53.205Z,42.03
2022-07-29T17:02:20.014Z,42.52
2022-07-29T17:04:46.523Z,42.38
2022-07-29T17:07:13.035Z,42.54
2022-07-29T17:09:40.515Z,42.45
2022-07-29T17:12:07.191Z,42.70
2022-07-29T17:14:33.687Z,42.83
2022-07-29T17:17:02.303Z,42.79
2022-07-29T17:19:32.623Z,42.70
2022-07-29T17:22:08.441Z,42.97
2022-07-29T17:24:38.282Z,43.04
2022-07-29T17:27:05.895Z,43.25
2022-07-29T17:29:32.452Z,43.20
2022-07-29T17:32:00.051Z,43.54
2022-07-29T17:34:26.769Z,43.29
2022-07-29T17:36:53.300Z,43.05
2022-07-29T17:39:19.753Z,43.20
2022-07-29T17:41:46.899Z,43.26
2022-07-29T17:44:14.031Z,44.07
2022-07-29T17:46:40.728Z,44.26
2022-07-29T17:49:07.554Z,44.14
2022-07-29T17:51:34.072Z,44.34
2022-07-29T17:54:00.600Z,44.19
2022-07-29T17:56:27.175Z,44.15
2022-07-29T17:58:54.134Z,44.93
2022-07-29T18:01:20.979Z,44.75
2022-07-29T18:03:47.599Z,44.49
2022-07-29T18:06:14.142Z,44.91
2022-07-29T18:08:40.675Z,44.56
2022-07-29T18:11:07.197Z,44.68
2022-07-29T18:13:33.886Z,45.11
2022-07-29T18:16:00.963Z,45.07
2022-07-29T18:18:27.852Z,45.18
2022-07-29T18:20:54.555Z,45.37
2022-07-29T18:23:21.259Z,45.16
2022-07-29T18:25:47.952Z,44.98
2022-07-29T18:28:14.587Z,45.68
2022-07-29T18:30:41.904Z,45.49
2022-07-29T18:33:22.814Z,45.49
2022-07-29T18:35:52.294Z,46.13
2022-07-29T18:38:34.466Z,46.31
2022-07-29T18:41:00.963Z,46.67
2022-07-29T18:43:27.481Z,46.63
2022-07-29T18:45:53.998Z,46.90
2022-07-29T18:48:20.483Z,47.32
2022-07-29T18:50:46.990Z,47.44
2022-07-29T18:53:13.462Z,47.11
2022-07-29T18:55:39.992Z,47.11
2022-07-29T18:58:06.569Z,47.56
2022-07-29T19:00:33.103Z,47.60
2022-07-29T19:02:59.826Z,47.66
2022-07-29T19:05:26.448Z,48.13
2022-07-29T19:07:54.734Z,48.90
2022-07-29T19:10:21.383Z,48.97
2022-07-29T19:12:48.009Z,49.45
2022-07-29T19:15:19.959Z,50.43
2022-07-29T19:17:47.956Z,50.95
2022-07-29T19:20:14.801Z,50.68
2022-07-29T19:22:41.782Z,51.27
2022-07-29T19:25:09.241Z,50.73
2022-07-29T19:27:35.751Z,50.97
2022-07-29T19:30:03.437Z,50.88
2022-07-29T19:32:30.016Z,51.67
2022-07-29T19:35:15.204Z,52.08
2022-07-29T19:37:41.724Z,52.15
2022-07-29T19:40:09.969Z,52.16
2022-07-29T19:42:36.425Z,52.72
2022-07-29T19:45:03.307Z,52.73
2022-07-29T19:47:29.908Z,53.58
2022-07-29T19:49:56.381Z,53.54
2022-07-29T19:52:22.879Z,53.43
2022-07-29T19:54:49.370Z,54.15
2022-07-29T19:57:15.834Z,54.12
2022-07-29T19:59:42.689Z,54.81
2022-07-29T20:02:12.216Z,54.82
2022-07-29T20:04:39.244Z,55.06
2022-07-29T20:07:06.923Z,55.55
2022-07-29T20:09:33.533Z,55.42
2022-07-29T20:12:00.048Z,55.98
2022-07-29T20:14:26.824Z,56.35
2022-07-29T20:16:54.403Z,56.23
2022-07-29T20:19:21.082Z,56.93
2022-07-29T20:21:47.587Z,56.98
2022-07-29T20:24:14.109Z,56.62
2022-07-29T20:26:41.945Z,56.67
2022-07-29T20:29:09.171Z,57.40
2022-07-29T20:31:35.982Z,57.97
2022-07-29T20:34:02.526Z,56.40
2022-07-29T20:36:29.142Z,56.98
2022-07-29T20:38:56.088Z,57.16
2022-07-29T20:41:22.935Z,56.47
2022-07-29T20:43:52.786Z,56.56
2022-07-29T20:46:19.442Z,56.49
2022-07-29T20:48:46.982Z,57.94
2022-07-29T20:51:14.448Z,56.84
2022-07-29T20:53:41.047Z,57.06
2022-07-29T20:56:07.953Z,57.54
2022-07-29T20:58:36.270Z,57.95
2022-07-29T21:01:04.224Z,58.66
2022-07-29T21:03:31.098Z,58.80
2022-07-29T21:05:57.588Z,58.70
2022-07-29T21:08:24.333Z,58.49
2022-07-29T21:10:50.943Z,59.21
2022-07-29T21:13:18.439Z,59.53
2022-07-29T21:15:48.739Z,59.24
2022-07-29T21:18:27.405Z,59.24
2022-07-29T21:20:55.112Z,59.56
2022-07-29T21:23:21.902Z,60.67
2022-07-29T21:25:48.566Z,59.80
2022-07-29T21:28:27.414Z,60.03
2022-07-29T21:30:59.539Z,61.78
2022-07-29T21:33:28.028Z,60.64
2022-07-29T21:38:41.491Z,60.89
2022-07-29T21:41:08.176Z,61.25
2022-07-29T21:43:34.703Z,60.58
2022-07-29T21:46:01.409Z,60.88
2022-07-29T21:48:29.147Z,60.84
2022-07-29T21:50:56.070Z,61.59
2022-07-29T21:53:23.127Z,62.12
2022-07-29T21:55:56.815Z,62.36
2022-07-29T21:58:24.528Z,62.48
2022-07-29T22:00:51.088Z,62.07
2022-07-29T22:03:17.878Z,61.40
2022-07-29T22:05:44.729Z,62.32
2022-07-29T22:08:11.514Z,61.68
2022-07-29T22:10:38.084Z,62.39
2022-07-29T22:13:04.858Z,63.32
2022-07-29T22:15:32.436Z,62.95
2022-07-29T22:17:59.018Z,62.52
2022-07-29T22:20:26.032Z,62.23
2022-07-29T22:22:53.248Z,63.20
2022-07-29T22:25:20.083Z,63.54
2022-07-29T22:27:46.587Z,65.76
2022-07-29T22:30:13.649Z,65.52
2022-07-29T22:32:40.226Z,64.95
2022-07-29T22:35:07.570Z,64.56
2022-07-29T22:37:34.279Z,64.74
2022-07-29T22:40:01.272Z,64.85
2022-07-29T22:42:27.799Z,65.55
2022-07-29T22:44:54.327Z,64.67
2022-07-29T22:47:38.667Z,64.55
2022-07-29T22:50:07.836Z,64.22
2022-07-29T22:52:34.304Z,64.64
2022-07-29T22:55:00.882Z,65.43
2022-07-29T22:57:27.398Z,64.82
2022-07-29T22:59:53.883Z,65.73
2022-07-29T23:02:20.501Z,66.36
2022-07-29T23:04:46.995Z,67.42
2022-07-29T23:07:13.517Z,66.56
2022-07-29T23:09:39.995Z,67.54
2022-07-29T23:12:06.921Z,67.84
2022-07-29T23:14:33.440Z,68.13
2022-07-29T23:17:00.370Z,67.37
2022-07-29T23:19:27.389Z,68.27
2022-07-29T23:21:53.919Z,68.59
2022-07-29T23:24:20.398Z,67.83
2022-07-29T23:26:47.067Z,67.75
2022-07-29T23:29:13.609Z,68.26
2022-07-29T23:31:42.624Z,68.80
2022-07-29T23:34:10.722Z,68.32
2022-07-29T23:36:37.240Z,67.96
2022-07-29T23:39:03.876Z,68.26
2022-07-29T23:41:30.826Z,68.98
2022-07-29T23:43:57.751Z,68.25
2022-07-29T23:46:24.398Z,68.45
2022-07-29T23:48:51.012Z,68.62
2022-07-29T23:51:17.565Z,69.83
2022-07-29T23:53:53.308Z,69.30
2022-07-29T23:56:21.216Z,68.40
2022-07-29T23:58:47.747Z,68.12
